AND123 UIII-UNKL
Flight info
| Callsign | AND123 |
|---|---|
| Flight time | N/A |
| Altitude | 36000 |
| Route | BOGRA4C BOGRA A815 TUTEK A91 SUKOR W176 TISBU/K0680F240 A311 LALOM LALOM2S |
| Aircraft | A320/M-SDE3FGHIRWY/LB1 |
Departure
| Time | 2026-05-08 06:29 |
|---|---|
| Airport | Irkutsk International Airport (UIII) |
Arrival
| Time | N/A |
|---|---|
| Airport | Krasnoyarsk International Airport (UNKL) |
| Time | Latitude | Longitude | Altitude | Speed | Heading |
|---|---|---|---|---|---|
| 2026-05-08 06:10 | 52.27071 | 104.36968 | 1656 ft | 0 kts | 200° |
| 2026-05-08 06:21 | 52.27070 | 104.36968 | 1656 ft | 0 kts | 200° |
| 2026-05-08 06:21 | 52.27050 | 104.36958 | 1629 ft | 5 kts | 186° |
| 2026-05-08 06:22 | 52.27015 | 104.37025 | 1629 ft | 11 kts | 114° |
| 2026-05-08 06:22 | 52.26991 | 104.37184 | 1629 ft | 16 kts | 89° |
| 2026-05-08 06:22 | 52.26977 | 104.37377 | 1631 ft | 18 kts | 111° |
| 2026-05-08 06:22 | 52.26920 | 104.37571 | 1632 ft | 19 kts | 118° |
| 2026-05-08 06:23 | 52.26866 | 104.37779 | 1635 ft | 20 kts | 112° |
| 2026-05-08 06:23 | 52.26810 | 104.37998 | 1638 ft | 21 kts | 114° |
| 2026-05-08 06:23 | 52.26751 | 104.38227 | 1641 ft | 22 kts | 113° |
| 2026-05-08 06:23 | 52.26687 | 104.38464 | 1644 ft | 23 kts | 114° |
| 2026-05-08 06:24 | 52.26621 | 104.38711 | 1647 ft | 24 kts | 114° |
| 2026-05-08 06:24 | 52.26558 | 104.38952 | 1650 ft | 22 kts | 113° |
| 2026-05-08 06:24 | 52.26497 | 104.39184 | 1654 ft | 22 kts | 113° |
| 2026-05-08 06:24 | 52.26438 | 104.39415 | 1657 ft | 22 kts | 111° |
| 2026-05-08 06:25 | 52.26398 | 104.39574 | 1661 ft | 22 kts | 112° |
| 2026-05-08 06:25 | 52.26339 | 104.39796 | 1662 ft | 22 kts | 114° |
| 2026-05-08 06:25 | 52.26277 | 104.40018 | 1678 ft | 21 kts | 114° |
| 2026-05-08 06:25 | 52.26216 | 104.40238 | 1679 ft | 21 kts | 114° |
| 2026-05-08 06:26 | 52.26158 | 104.40456 | 1677 ft | 21 kts | 112° |
| 2026-05-08 06:26 | 52.26101 | 104.40672 | 1686 ft | 20 kts | 113° |
| 2026-05-08 06:26 | 52.26045 | 104.40883 | 1687 ft | 20 kts | 113° |
| 2026-05-08 06:26 | 52.25998 | 104.41077 | 1679 ft | 16 kts | 92° |
| 2026-05-08 06:27 | 52.26018 | 104.41120 | 1688 ft | 0 kts | 28° |
| 2026-05-08 06:27 | 52.26019 | 104.41121 | 1688 ft | 1 kts | 30° |
| 2026-05-08 06:27 | 52.26055 | 104.41175 | 1686 ft | 11 kts | 41° |
| 2026-05-08 06:27 | 52.26123 | 104.41247 | 1680 ft | 13 kts | 27° |
| 2026-05-08 06:28 | 52.26213 | 104.41258 | 1679 ft | 15 kts | 334° |
| 2026-05-08 06:28 | 52.26283 | 104.41091 | 1679 ft | 24 kts | 295° |
| 2026-05-08 06:28 | 52.26439 | 104.40519 | 1676 ft | 91 kts | 293° |
| 2026-05-08 06:28 | 52.26776 | 104.39250 | 1653 ft | 150 kts | 293° |
| 2026-05-08 06:29 | 52.27230 | 104.37578 | 2133 ft | 161 kts | 295° |
| 2026-05-08 06:29 | 52.27703 | 104.35939 | 2983 ft | 159 kts | 295° |
| 2026-05-08 06:29 | 52.28152 | 104.34272 | 3734 ft | 163 kts | 293° |
| 2026-05-08 06:29 | 52.28616 | 104.32479 | 4154 ft | 181 kts | 294° |
| 2026-05-08 06:30 | 52.29154 | 104.30478 | 4430 ft | 203 kts | 299° |
| 2026-05-08 06:30 | 52.30221 | 104.28823 | 4610 ft | 229 kts | 331° |
| 2026-05-08 06:30 | 52.31779 | 104.27797 | 5081 ft | 251 kts | 340° |
| 2026-05-08 06:30 | 52.33481 | 104.26965 | 5918 ft | 258 kts | 342° |
| 2026-05-08 06:31 | 52.35222 | 104.26147 | 6817 ft | 262 kts | 341° |
| 2026-05-08 06:31 | 52.36382 | 104.25581 | 7415 ft | 263 kts | 340° |
| 2026-05-08 06:31 | 52.38735 | 104.24352 | 8617 ft | 268 kts | 339° |
| 2026-05-08 06:31 | 52.39908 | 104.23701 | 9215 ft | 270 kts | 338° |
| 2026-05-08 06:32 | 52.41693 | 104.22680 | 10086 ft | 273 kts | 338° |
| 2026-05-08 06:32 | 52.43545 | 104.21591 | 10491 ft | 294 kts | 337° |
| 2026-05-08 06:32 | 52.45532 | 104.20400 | 10888 ft | 312 kts | 338° |
| 2026-05-08 06:32 | 52.47596 | 104.19163 | 11581 ft | 319 kts | 338° |
| 2026-05-08 06:33 | 52.49700 | 104.17912 | 12341 ft | 324 kts | 338° |
| 2026-05-08 06:33 | 52.51836 | 104.16646 | 13101 ft | 329 kts | 338° |
| 2026-05-08 06:33 | 52.54004 | 104.15360 | 13847 ft | 333 kts | 338° |
| 2026-05-08 06:33 | 52.56201 | 104.14055 | 14501 ft | 337 kts | 338° |